sensor_id;sensor_type;location;lat;lon;timestamp;temperature;humidity
40434;DHT22;26146;51.114;5.654;2023-07-09T00:00:18;24.00;99.90
40434;DHT22;26146;51.114;5.654;2023-07-09T00:04:20;24.00;99.90
40434;DHT22;26146;51.114;5.654;2023-07-09T00:08:27;23.80;99.90
40434;DHT22;26146;51.114;5.654;2023-07-09T00:12:29;23.80;99.90
40434;DHT22;26146;51.114;5.654;2023-07-09T00:16:30;23.70;99.90
40434;DHT22;26146;51.114;5.654;2023-07-09T00:20:30;23.70;99.90
40434;DHT22;26146;51.114;5.654;2023-07-09T00:24:32;23.70;99.90
40434;DHT22;26146;51.114;5.654;2023-07-09T00:28:33;23.60;99.90
40434;DHT22;26146;51.114;5.654;2023-07-09T00:32:34;23.60;99.90
40434;DHT22;26146;51.114;5.654;2023-07-09T00:36:43;23.50;99.90
40434;DHT22;26146;51.114;5.654;2023-07-09T00:41:35;23.40;99.90
40434;DHT22;26146;51.114;5.654;2023-07-09T00:45:21;23.40;99.90
40434;DHT22;26146;51.114;5.654;2023-07-09T00:49:59;23.40;99.90
40434;DHT22;26146;51.114;5.654;2023-07-09T00:54:08;23.30;99.90
40434;DHT22;26146;51.114;5.654;2023-07-09T00:58:15;23.30;99.90
40434;DHT22;26146;51.114;5.654;2023-07-09T01:02:16;23.20;99.90
40434;DHT22;26146;51.114;5.654;2023-07-09T01:06:28;23.20;99.90
40434;DHT22;26146;51.114;5.654;2023-07-09T01:10:33;23.10;99.90
40434;DHT22;26146;51.114;5.654;2023-07-09T01:14:34;23.10;99.90
40434;DHT22;26146;51.114;5.654;2023-07-09T01:18:36;23.10;99.90
40434;DHT22;26146;51.114;5.654;2023-07-09T01:22:37;23.10;99.90
40434;DHT22;26146;51.114;5.654;2023-07-09T01:26:38;23.10;99.90
40434;DHT22;26146;51.114;5.654;2023-07-09T01:30:40;23.00;99.90
40434;DHT22;26146;51.114;5.654;2023-07-09T01:34:42;23.10;99.90
40434;DHT22;26146;51.114;5.654;2023-07-09T01:38:44;23.00;99.90
40434;DHT22;26146;51.114;5.654;2023-07-09T01:42:48;23.10;99.90
40434;DHT22;26146;51.114;5.654;2023-07-09T01:46:49;23.10;99.90
40434;DHT22;26146;51.114;5.654;2023-07-09T01:50:51;23.20;99.90
40434;DHT22;26146;51.114;5.654;2023-07-09T01:54:52;23.10;99.90
40434;DHT22;26146;51.114;5.654;2023-07-09T01:58:53;23.10;99.90
40434;DHT22;26146;51.114;5.654;2023-07-09T02:03:01;23.00;99.90
40434;DHT22;26146;51.114;5.654;2023-07-09T02:07:03;23.00;99.90
40434;DHT22;26146;51.114;5.654;2023-07-09T02:11:04;22.90;99.90
40434;DHT22;26146;51.114;5.654;2023-07-09T02:15:06;22.90;99.90
40434;DHT22;26146;51.114;5.654;2023-07-09T02:19:07;22.90;99.90
40434;DHT22;26146;51.114;5.654;2023-07-09T02:23:08;22.90;99.90
40434;DHT22;26146;51.114;5.654;2023-07-09T02:27:12;22.90;99.90
40434;DHT22;26146;51.114;5.654;2023-07-09T02:31:13;22.70;99.90
40434;DHT22;26146;51.114;5.654;2023-07-09T02:35:16;22.80;99.90
40434;DHT22;26146;51.114;5.654;2023-07-09T02:39:17;22.80;99.90
40434;DHT22;26146;51.114;5.654;2023-07-09T02:43:18;22.80;99.90
40434;DHT22;26146;51.114;5.654;2023-07-09T02:47:19;22.80;99.90
40434;DHT22;26146;51.114;5.654;2023-07-09T02:51:20;22.70;99.90
40434;DHT22;26146;51.114;5.654;2023-07-09T02:55:21;22.60;99.90
40434;DHT22;26146;51.114;5.654;2023-07-09T02:59:22;22.50;99.90
40434;DHT22;26146;51.114;5.654;2023-07-09T03:03:24;22.40;99.90
40434;DHT22;26146;51.114;5.654;2023-07-09T03:07:25;22.30;99.90
40434;DHT22;26146;51.114;5.654;2023-07-09T03:11:31;22.30;99.90
40434;DHT22;26146;51.114;5.654;2023-07-09T03:15:32;22.30;99.90
40434;DHT22;26146;51.114;5.654;2023-07-09T03:19:33;22.30;99.90
40434;DHT22;26146;51.114;5.654;2023-07-09T03:23:34;22.30;99.90
40434;DHT22;26146;51.114;5.654;2023-07-09T03:27:35;22.20;99.90
40434;DHT22;26146;51.114;5.654;2023-07-09T03:31:36;22.20;99.90
40434;DHT22;26146;51.114;5.654;2023-07-09T03:35:37;22.10;99.90
40434;DHT22;26146;51.114;5.654;2023-07-09T03:39:39;22.20;99.90
40434;DHT22;26146;51.114;5.654;2023-07-09T03:43:40;22.20;99.90
40434;DHT22;26146;51.114;5.654;2023-07-09T03:47:41;22.20;99.90
40434;DHT22;26146;51.114;5.654;2023-07-09T03:51:42;22.10;99.90
40434;DHT22;26146;51.114;5.654;2023-07-09T03:55:45;22.30;99.90
40434;DHT22;26146;51.114;5.654;2023-07-09T03:59:47;22.50;99.90
40434;DHT22;26146;51.114;5.654;2023-07-09T04:03:48;22.70;99.90
40434;DHT22;26146;51.114;5.654;2023-07-09T04:07:49;23.00;99.90
40434;DHT22;26146;51.114;5.654;2023-07-09T04:11:50;23.50;99.90
40434;DHT22;26146;51.114;5.654;2023-07-09T04:15:51;24.00;99.90
40434;DHT22;26146;51.114;5.654;2023-07-09T04:19:53;24.30;99.90
40434;DHT22;26146;51.114;5.654;2023-07-09T04:23:54;24.20;99.90
40434;DHT22;26146;51.114;5.654;2023-07-09T04:27:55;23.90;99.90
40434;DHT22;26146;51.114;5.654;2023-07-09T04:31:56;23.90;99.90
40434;DHT22;26146;51.114;5.654;2023-07-09T04:35:57;24.00;99.90
40434;DHT22;26146;51.114;5.654;2023-07-09T04:39:58;24.10;99.90
40434;DHT22;26146;51.114;5.654;2023-07-09T04:43:59;24.30;99.90
40434;DHT22;26146;51.114;5.654;2023-07-09T04:48:00;24.40;99.90
40434;DHT22;26146;51.114;5.654;2023-07-09T04:52:01;24.50;99.90
40434;DHT22;26146;51.114;5.654;2023-07-09T04:56:03;24.40;99.90
40434;DHT22;26146;51.114;5.654;2023-07-09T05:00:04;24.50;99.90
40434;DHT22;26146;51.114;5.654;2023-07-09T05:04:06;24.70;99.90
40434;DHT22;26146;51.114;5.654;2023-07-09T05:08:07;24.70;99.90
40434;DHT22;26146;51.114;5.654;2023-07-09T05:12:08;24.90;99.90
40434;DHT22;26146;51.114;5.654;2023-07-09T05:16:09;25.10;99.90
40434;DHT22;26146;51.114;5.654;2023-07-09T05:20:10;25.20;99.90
40434;DHT22;26146;51.114;5.654;2023-07-09T05:24:11;25.30;99.90
40434;DHT22;26146;51.114;5.654;2023-07-09T05:28:12;25.60;99.90
40434;DHT22;26146;51.114;5.654;2023-07-09T05:32:13;25.60;99.90
40434;DHT22;26146;51.114;5.654;2023-07-09T05:36:14;25.80;99.90
40434;DHT22;26146;51.114;5.654;2023-07-09T05:40:16;26.00;99.90
40434;DHT22;26146;51.114;5.654;2023-07-09T05:44:17;26.00;99.90
40434;DHT22;26146;51.114;5.654;2023-07-09T05:48:18;26.20;99.90
40434;DHT22;26146;51.114;5.654;2023-07-09T05:52:21;26.20;99.90
40434;DHT22;26146;51.114;5.654;2023-07-09T05:56:22;26.40;99.90
40434;DHT22;26146;51.114;5.654;2023-07-09T06:00:23;26.60;99.90
40434;DHT22;26146;51.114;5.654;2023-07-09T06:04:24;26.80;99.90
40434;DHT22;26146;51.114;5.654;2023-07-09T06:08:26;26.90;99.90
40434;DHT22;26146;51.114;5.654;2023-07-09T06:12:27;27.00;99.90
40434;DHT22;26146;51.114;5.654;2023-07-09T06:16:28;27.00;99.90
40434;DHT22;26146;51.114;5.654;2023-07-09T06:20:29;27.10;99.90
40434;DHT22;26146;51.114;5.654;2023-07-09T06:24:30;27.30;99.90
40434;DHT22;26146;51.114;5.654;2023-07-09T06:28:32;27.40;99.90
40434;DHT22;26146;51.114;5.654;2023-07-09T06:32:33;27.40;99.90
40434;DHT22;26146;51.114;5.654;2023-07-09T06:36:34;27.50;99.90
40434;DHT22;26146;51.114;5.654;2023-07-09T06:40:34;27.50;99.90
40434;DHT22;26146;51.114;5.654;2023-07-09T06:44:36;27.90;99.90
40434;DHT22;26146;51.114;5.654;2023-07-09T06:48:37;28.10;99.90
40434;DHT22;26146;51.114;5.654;2023-07-09T06:52:38;28.30;99.90
40434;DHT22;26146;51.114;5.654;2023-07-09T06:56:39;28.50;99.90
40434;DHT22;26146;51.114;5.654;2023-07-09T07:00:42;28.50;99.90
40434;DHT22;26146;51.114;5.654;2023-07-09T07:04:45;28.50;99.90
40434;DHT22;26146;51.114;5.654;2023-07-09T07:08:46;28.50;99.90
40434;DHT22;26146;51.114;5.654;2023-07-09T07:12:48;28.70;99.90
40434;DHT22;26146;51.114;5.654;2023-07-09T07:16:50;28.70;99.90
40434;DHT22;26146;51.114;5.654;2023-07-09T07:20:51;29.00;99.90
40434;DHT22;26146;51.114;5.654;2023-07-09T07:24:52;29.30;99.90
40434;DHT22;26146;51.114;5.654;2023-07-09T07:28:53;29.40;99.90
40434;DHT22;26146;51.114;5.654;2023-07-09T07:32:54;29.20;99.90
40434;DHT22;26146;51.114;5.654;2023-07-09T07:36:55;29.50;99.90
40434;DHT22;26146;51.114;5.654;2023-07-09T07:40:56;29.70;99.90
40434;DHT22;26146;51.114;5.654;2023-07-09T07:44:57;29.90;99.90
40434;DHT22;26146;51.114;5.654;2023-07-09T07:48:58;30.10;99.60
40434;DHT22;26146;51.114;5.654;2023-07-09T07:53:00;30.30;98.80
40434;DHT22;26146;51.114;5.654;2023-07-09T07:57:01;30.40;98.00
40434;DHT22;26146;51.114;5.654;2023-07-09T08:01:03;30.60;98.40
40434;DHT22;26146;51.114;5.654;2023-07-09T08:05:04;30.80;96.60
40434;DHT22;26146;51.114;5.654;2023-07-09T08:09:06;31.00;96.80
40434;DHT22;26146;51.114;5.654;2023-07-09T08:13:07;31.00;96.00
40434;DHT22;26146;51.114;5.654;2023-07-09T08:17:08;31.30;96.10
40434;DHT22;26146;51.114;5.654;2023-07-09T08:21:09;31.20;96.50
40434;DHT22;26146;51.114;5.654;2023-07-09T08:25:10;31.40;96.30
40434;DHT22;26146;51.114;5.654;2023-07-09T08:29:11;31.40;95.90
40434;DHT22;26146;51.114;5.654;2023-07-09T08:33:12;31.40;96.80
40434;DHT22;26146;51.114;5.654;2023-07-09T08:37:13;31.60;95.70
40434;DHT22;26146;51.114;5.654;2023-07-09T08:45:50;31.80;95.60
40434;DHT22;26146;51.114;5.654;2023-07-09T08:49:58;31.80;95.50
40434;DHT22;26146;51.114;5.654;2023-07-09T08:54:00;31.90;95.00
40434;DHT22;26146;51.114;5.654;2023-07-09T08:58:09;32.00;95.40
40434;DHT22;26146;51.114;5.654;2023-07-09T09:02:33;32.00;94.20
40434;DHT22;26146;51.114;5.654;2023-07-09T09:06:36;31.90;94.20
40434;DHT22;26146;51.114;5.654;2023-07-09T09:10:47;31.50;95.00
40434;DHT22;26146;51.114;5.654;2023-07-09T09:15:10;31.60;94.70
40434;DHT22;26146;51.114;5.654;2023-07-09T09:19:22;31.50;95.40
40434;DHT22;26146;51.114;5.654;2023-07-09T09:23:36;31.40;95.20
40434;DHT22;26146;51.114;5.654;2023-07-09T09:27:38;31.50;94.50
40434;DHT22;26146;51.114;5.654;2023-07-09T09:31:41;31.60;94.10
40434;DHT22;26146;51.114;5.654;2023-07-09T09:35:44;31.50;94.60
40434;DHT22;26146;51.114;5.654;2023-07-09T09:39:45;31.50;94.30
40434;DHT22;26146;51.114;5.654;2023-07-09T09:43:51;31.80;93.20
40434;DHT22;26146;51.114;5.654;2023-07-09T09:47:57;32.00;92.50
40434;DHT22;26146;51.114;5.654;2023-07-09T09:52:06;32.30;92.70
40434;DHT22;26146;51.114;5.654;2023-07-09T09:56:15;32.30;92.20
40434;DHT22;26146;51.114;5.654;2023-07-09T10:00:23;32.50;92.80
40434;DHT22;26146;51.114;5.654;2023-07-09T10:04:28;32.80;93.30
40434;DHT22;26146;51.114;5.654;2023-07-09T10:21:51;33.10;91.70
40434;DHT22;26146;51.114;5.654;2023-07-09T10:35:04;33.20;91.70
40434;DHT22;26146;51.114;5.654;2023-07-09T10:39:33;33.30;92.40
40434;DHT22;26146;51.114;5.654;2023-07-09T10:43:42;33.40;91.90
40434;DHT22;26146;51.114;5.654;2023-07-09T10:47:45;33.80;90.40
40434;DHT22;26146;51.114;5.654;2023-07-09T10:51:55;34.10;90.60
40434;DHT22;26146;51.114;5.654;2023-07-09T11:00:03;33.90;91.20
40434;DHT22;26146;51.114;5.654;2023-07-09T11:08:39;34.60;89.60
40434;DHT22;26146;51.114;5.654;2023-07-09T11:12:44;34.70;90.10
40434;DHT22;26146;51.114;5.654;2023-07-09T11:16:45;34.60;88.20
40434;DHT22;26146;51.114;5.654;2023-07-09T11:20:47;34.60;87.00
40434;DHT22;26146;51.114;5.654;2023-07-09T11:25:11;35.10;87.10
40434;DHT22;26146;51.114;5.654;2023-07-09T11:29:17;35.80;84.20
40434;DHT22;26146;51.114;5.654;2023-07-09T11:33:26;36.30;81.60
40434;DHT22;26146;51.114;5.654;2023-07-09T11:37:30;36.70;83.40
40434;DHT22;26146;51.114;5.654;2023-07-09T11:41:43;36.50;83.80
40434;DHT22;26146;51.114;5.654;2023-07-09T11:45:49;36.50;81.70
40434;DHT22;26146;51.114;5.654;2023-07-09T11:49:59;36.10;83.40
40434;DHT22;26146;51.114;5.654;2023-07-09T11:54:03;36.30;83.40
40434;DHT22;26146;51.114;5.654;2023-07-09T11:58:08;35.90;83.20
40434;DHT22;26146;51.114;5.654;2023-07-09T12:02:19;35.50;83.50
40434;DHT22;26146;51.114;5.654;2023-07-09T12:06:24;35.50;86.30
40434;DHT22;26146;51.114;5.654;2023-07-09T12:10:32;35.20;86.00
40434;DHT22;26146;51.114;5.654;2023-07-09T12:14:34;35.00;87.20
40434;DHT22;26146;51.114;5.654;2023-07-09T12:18:35;34.80;87.20
40434;DHT22;26146;51.114;5.654;2023-07-09T12:22:36;34.50;86.20
40434;DHT22;26146;51.114;5.654;2023-07-09T12:26:37;33.90;88.70
40434;DHT22;26146;51.114;5.654;2023-07-09T12:30:38;33.50;90.20
40434;DHT22;26146;51.114;5.654;2023-07-09T12:34:40;33.40;90.40
40434;DHT22;26146;51.114;5.654;2023-07-09T12:38:43;33.30;90.20
40434;DHT22;26146;51.114;5.654;2023-07-09T12:42:44;33.30;90.00
40434;DHT22;26146;51.114;5.654;2023-07-09T12:46:47;33.50;90.40
40434;DHT22;26146;51.114;5.654;2023-07-09T12:50:50;33.20;90.80
40434;DHT22;26146;51.114;5.654;2023-07-09T12:54:58;33.30;91.00
40434;DHT22;26146;51.114;5.654;2023-07-09T12:58:59;32.90;91.80
40434;DHT22;26146;51.114;5.654;2023-07-09T13:03:00;32.80;92.40
40434;DHT22;26146;51.114;5.654;2023-07-09T13:07:01;32.10;93.90
40434;DHT22;26146;51.114;5.654;2023-07-09T13:11:02;32.00;94.00
40434;DHT22;26146;51.114;5.654;2023-07-09T13:15:03;31.80;94.40
40434;DHT22;26146;51.114;5.654;2023-07-09T13:19:05;31.90;94.70
40434;DHT22;26146;51.114;5.654;2023-07-09T13:23:16;31.70;95.30
40434;DHT22;26146;51.114;5.654;2023-07-09T13:27:18;31.50;95.40
40434;DHT22;26146;51.114;5.654;2023-07-09T13:31:20;31.00;97.60
40434;DHT22;26146;51.114;5.654;2023-07-09T13:35:21;30.50;99.70
40434;DHT22;26146;51.114;5.654;2023-07-09T13:39:22;30.30;99.60
40434;DHT22;26146;51.114;5.654;2023-07-09T13:43:32;29.30;99.90
40434;DHT22;26146;51.114;5.654;2023-07-09T13:47:33;27.20;99.90
40434;DHT22;26146;51.114;5.654;2023-07-09T13:51:35;26.40;99.90
40434;DHT22;26146;51.114;5.654;2023-07-09T13:55:37;26.20;99.90
40434;DHT22;26146;51.114;5.654;2023-07-09T13:59:38;26.10;99.90
40434;DHT22;26146;51.114;5.654;2023-07-09T14:03:39;26.20;99.90
40434;DHT22;26146;51.114;5.654;2023-07-09T14:07:42;26.80;99.90
40434;DHT22;26146;51.114;5.654;2023-07-09T14:11:48;26.60;99.90
40434;DHT22;26146;51.114;5.654;2023-07-09T14:15:50;26.50;99.90
40434;DHT22;26146;51.114;5.654;2023-07-09T14:19:52;26.10;99.90
40434;DHT22;26146;51.114;5.654;2023-07-09T14:23:53;26.10;99.90
40434;DHT22;26146;51.114;5.654;2023-07-09T14:27:55;26.50;99.90
40434;DHT22;26146;51.114;5.654;2023-07-09T14:31:56;26.90;99.90
40434;DHT22;26146;51.114;5.654;2023-07-09T14:35:56;27.30;99.90
40434;DHT22;26146;51.114;5.654;2023-07-09T14:39:57;27.70;99.90
40434;DHT22;26146;51.114;5.654;2023-07-09T14:43:58;28.10;99.90
40434;DHT22;26146;51.114;5.654;2023-07-09T14:47:59;28.30;99.90
40434;DHT22;26146;51.114;5.654;2023-07-09T14:52:00;28.40;99.90
40434;DHT22;26146;51.114;5.654;2023-07-09T14:56:01;28.40;99.90
40434;DHT22;26146;51.114;5.654;2023-07-09T15:00:08;28.90;99.90
40434;DHT22;26146;51.114;5.654;2023-07-09T15:04:31;29.40;99.90
40434;DHT22;26146;51.114;5.654;2023-07-09T15:08:32;29.30;99.90
40434;DHT22;26146;51.114;5.654;2023-07-09T15:12:35;29.20;99.90
40434;DHT22;26146;51.114;5.654;2023-07-09T15:16:38;29.80;99.90
40434;DHT22;26146;51.114;5.654;2023-07-09T15:20:42;30.20;99.90
40434;DHT22;26146;51.114;5.654;2023-07-09T15:24:45;30.60;99.90
40434;DHT22;26146;51.114;5.654;2023-07-09T15:28:48;30.70;99.90
40434;DHT22;26146;51.114;5.654;2023-07-09T15:32:51;31.00;99.80
40434;DHT22;26146;51.114;5.654;2023-07-09T15:36:54;30.80;99.60
40434;DHT22;26146;51.114;5.654;2023-07-09T15:40:56;30.20;99.90
40434;DHT22;26146;51.114;5.654;2023-07-09T15:44:57;30.10;99.90
40434;DHT22;26146;51.114;5.654;2023-07-09T15:48:58;30.00;99.90
40434;DHT22;26146;51.114;5.654;2023-07-09T15:52:59;29.80;99.90
40434;DHT22;26146;51.114;5.654;2023-07-09T15:57:00;29.80;99.90
40434;DHT22;26146;51.114;5.654;2023-07-09T16:01:01;29.30;99.90
40434;DHT22;26146;51.114;5.654;2023-07-09T16:05:14;29.10;99.90
40434;DHT22;26146;51.114;5.654;2023-07-09T16:09:15;29.20;99.90
40434;DHT22;26146;51.114;5.654;2023-07-09T16:13:22;29.20;99.90
40434;DHT22;26146;51.114;5.654;2023-07-09T16:17:24;29.20;99.90
40434;DHT22;26146;51.114;5.654;2023-07-09T16:21:27;28.90;99.90
40434;DHT22;26146;51.114;5.654;2023-07-09T16:25:35;29.20;99.90
40434;DHT22;26146;51.114;5.654;2023-07-09T16:29:39;29.00;99.90
40434;DHT22;26146;51.114;5.654;2023-07-09T16:33:40;29.20;99.90
40434;DHT22;26146;51.114;5.654;2023-07-09T16:37:42;29.50;99.90
40434;DHT22;26146;51.114;5.654;2023-07-09T16:41:44;29.50;99.90
40434;DHT22;26146;51.114;5.654;2023-07-09T16:45:45;29.50;99.90
40434;DHT22;26146;51.114;5.654;2023-07-09T16:49:47;29.50;99.90
40434;DHT22;26146;51.114;5.654;2023-07-09T16:53:48;29.30;99.90
40434;DHT22;26146;51.114;5.654;2023-07-09T16:57:53;28.90;99.90
40434;DHT22;26146;51.114;5.654;2023-07-09T17:01:54;28.80;99.90
40434;DHT22;26146;51.114;5.654;2023-07-09T17:05:55;28.70;99.90
40434;DHT22;26146;51.114;5.654;2023-07-09T17:09:56;28.70;99.90
40434;DHT22;26146;51.114;5.654;2023-07-09T17:14:01;28.50;99.90
40434;DHT22;26146;51.114;5.654;2023-07-09T17:18:20;28.60;99.90
40434;DHT22;26146;51.114;5.654;2023-07-09T17:22:32;28.50;99.90
40434;DHT22;26146;51.114;5.654;2023-07-09T17:26:34;28.50;99.90
40434;DHT22;26146;51.114;5.654;2023-07-09T17:30:35;28.20;99.90
40434;DHT22;26146;51.114;5.654;2023-07-09T17:34:36;28.10;99.90
40434;DHT22;26146;51.114;5.654;2023-07-09T17:38:37;28.20;99.90
40434;DHT22;26146;51.114;5.654;2023-07-09T17:42:38;28.20;99.90
40434;DHT22;26146;51.114;5.654;2023-07-09T17:46:49;28.10;99.90
40434;DHT22;26146;51.114;5.654;2023-07-09T17:50:50;28.00;99.90
40434;DHT22;26146;51.114;5.654;2023-07-09T17:54:51;28.20;99.90
40434;DHT22;26146;51.114;5.654;2023-07-09T17:58:52;28.30;99.90
40434;DHT22;26146;51.114;5.654;2023-07-09T18:02:59;28.30;99.90
40434;DHT22;26146;51.114;5.654;2023-07-09T18:11:23;27.90;99.90
40434;DHT22;26146;51.114;5.654;2023-07-09T18:15:26;27.70;99.90
40434;DHT22;26146;51.114;5.654;2023-07-09T18:19:28;27.60;99.90
40434;DHT22;26146;51.114;5.654;2023-07-09T18:23:29;27.60;99.90
40434;DHT22;26146;51.114;5.654;2023-07-09T18:27:33;27.30;99.90
40434;DHT22;26146;51.114;5.654;2023-07-09T18:31:35;27.10;99.90
40434;DHT22;26146;51.114;5.654;2023-07-09T18:35:38;27.20;99.90
40434;DHT22;26146;51.114;5.654;2023-07-09T18:39:39;27.00;99.90
40434;DHT22;26146;51.114;5.654;2023-07-09T18:43:40;26.90;99.90
40434;DHT22;26146;51.114;5.654;2023-07-09T18:47:42;26.70;99.90
40434;DHT22;26146;51.114;5.654;2023-07-09T18:51:44;26.60;99.90
40434;DHT22;26146;51.114;5.654;2023-07-09T18:55:45;26.50;99.90
40434;DHT22;26146;51.114;5.654;2023-07-09T18:59:46;26.30;99.90
40434;DHT22;26146;51.114;5.654;2023-07-09T19:03:47;26.20;99.90
40434;DHT22;26146;51.114;5.654;2023-07-09T19:07:53;26.00;99.90
40434;DHT22;26146;51.114;5.654;2023-07-09T19:11:55;25.80;99.90
40434;DHT22;26146;51.114;5.654;2023-07-09T19:15:56;25.50;99.90
40434;DHT22;26146;51.114;5.654;2023-07-09T19:19:59;25.50;99.90
40434;DHT22;26146;51.114;5.654;2023-07-09T19:24:00;25.40;99.90
40434;DHT22;26146;51.114;5.654;2023-07-09T19:28:03;25.40;99.90
40434;DHT22;26146;51.114;5.654;2023-07-09T19:32:14;25.30;99.90
40434;DHT22;26146;51.114;5.654;2023-07-09T19:36:23;25.00;99.90
40434;DHT22;26146;51.114;5.654;2023-07-09T19:40:27;24.80;99.90
40434;DHT22;26146;51.114;5.654;2023-07-09T19:44:28;24.80;99.90
40434;DHT22;26146;51.114;5.654;2023-07-09T19:48:29;24.70;99.90
40434;DHT22;26146;51.114;5.654;2023-07-09T19:52:30;24.60;99.90
40434;DHT22;26146;51.114;5.654;2023-07-09T19:56:31;24.70;99.90
40434;DHT22;26146;51.114;5.654;2023-07-09T20:00:32;24.50;99.90
40434;DHT22;26146;51.114;5.654;2023-07-09T20:04:33;24.40;99.90
40434;DHT22;26146;51.114;5.654;2023-07-09T20:08:34;24.30;99.90
40434;DHT22;26146;51.114;5.654;2023-07-09T20:12:36;24.40;99.90
40434;DHT22;26146;51.114;5.654;2023-07-09T20:16:38;24.10;99.90
40434;DHT22;26146;51.114;5.654;2023-07-09T20:20:39;23.80;99.90
40434;DHT22;26146;51.114;5.654;2023-07-09T20:24:40;23.60;99.90
40434;DHT22;26146;51.114;5.654;2023-07-09T20:28:41;23.60;99.90
40434;DHT22;26146;51.114;5.654;2023-07-09T20:32:43;23.60;99.90
40434;DHT22;26146;51.114;5.654;2023-07-09T20:36:47;23.60;99.90
40434;DHT22;26146;51.114;5.654;2023-07-09T20:40:51;23.50;99.90
40434;DHT22;26146;51.114;5.654;2023-07-09T20:44:52;23.50;99.90
40434;DHT22;26146;51.114;5.654;2023-07-09T20:48:58;23.30;99.90
40434;DHT22;26146;51.114;5.654;2023-07-09T20:53:00;23.30;99.90
40434;DHT22;26146;51.114;5.654;2023-07-09T20:57:02;23.30;99.90
40434;DHT22;26146;51.114;5.654;2023-07-09T21:01:07;23.20;99.90
40434;DHT22;26146;51.114;5.654;2023-07-09T21:05:10;23.10;99.90
40434;DHT22;26146;51.114;5.654;2023-07-09T21:09:29;23.10;99.90
40434;DHT22;26146;51.114;5.654;2023-07-09T21:13:31;23.20;99.90
40434;DHT22;26146;51.114;5.654;2023-07-09T21:17:32;23.10;99.90
40434;DHT22;26146;51.114;5.654;2023-07-09T21:21:33;23.20;99.90
40434;DHT22;26146;51.114;5.654;2023-07-09T21:25:34;23.00;99.90
40434;DHT22;26146;51.114;5.654;2023-07-09T21:29:35;23.00;99.90
40434;DHT22;26146;51.114;5.654;2023-07-09T21:33:36;23.10;99.90
40434;DHT22;26146;51.114;5.654;2023-07-09T21:37:37;23.10;99.90
40434;DHT22;26146;51.114;5.654;2023-07-09T21:41:38;23.10;99.90
40434;DHT22;26146;51.114;5.654;2023-07-09T21:45:42;23.30;99.90
40434;DHT22;26146;51.114;5.654;2023-07-09T21:49:43;23.10;99.90
40434;DHT22;26146;51.114;5.654;2023-07-09T21:53:45;23.00;99.90
40434;DHT22;26146;51.114;5.654;2023-07-09T21:57:46;22.80;99.90
40434;DHT22;26146;51.114;5.654;2023-07-09T22:01:49;22.70;99.90
40434;DHT22;26146;51.114;5.654;2023-07-09T22:05:52;22.70;99.90
40434;DHT22;26146;51.114;5.654;2023-07-09T22:09:55;22.60;99.90
40434;DHT22;26146;51.114;5.654;2023-07-09T22:13:56;22.60;99.90
40434;DHT22;26146;51.114;5.654;2023-07-09T22:17:58;22.30;99.90
40434;DHT22;26146;51.114;5.654;2023-07-09T22:21:59;22.20;99.90
40434;DHT22;26146;51.114;5.654;2023-07-09T22:26:00;22.10;99.90
40434;DHT22;26146;51.114;5.654;2023-07-09T22:30:01;22.10;99.90
40434;DHT22;26146;51.114;5.654;2023-07-09T22:34:18;22.00;99.90
40434;DHT22;26146;51.114;5.654;2023-07-09T22:38:22;22.00;99.90
40434;DHT22;26146;51.114;5.654;2023-07-09T22:42:24;22.10;99.90
40434;DHT22;26146;51.114;5.654;2023-07-09T22:46:25;22.20;99.90
40434;DHT22;26146;51.114;5.654;2023-07-09T22:50:36;22.10;99.90
40434;DHT22;26146;51.114;5.654;2023-07-09T22:54:37;21.90;99.90
40434;DHT22;26146;51.114;5.654;2023-07-09T22:58:38;21.80;99.90
40434;DHT22;26146;51.114;5.654;2023-07-09T23:02:39;21.70;99.90
40434;DHT22;26146;51.114;5.654;2023-07-09T23:06:41;21.60;99.90
40434;DHT22;26146;51.114;5.654;2023-07-09T23:10:42;21.60;99.90
40434;DHT22;26146;51.114;5.654;2023-07-09T23:14:43;21.40;99.90
40434;DHT22;26146;51.114;5.654;2023-07-09T23:18:44;21.30;99.90
40434;DHT22;26146;51.114;5.654;2023-07-09T23:22:45;21.20;99.90
40434;DHT22;26146;51.114;5.654;2023-07-09T23:26:51;21.20;99.90
40434;DHT22;26146;51.114;5.654;2023-07-09T23:30:53;21.00;99.90
40434;DHT22;26146;51.114;5.654;2023-07-09T23:34:54;20.90;99.90
40434;DHT22;26146;51.114;5.654;2023-07-09T23:38:55;20.90;99.90
40434;DHT22;26146;51.114;5.654;2023-07-09T23:42:56;20.90;99.90
40434;DHT22;26146;51.114;5.654;2023-07-09T23:46:57;20.90;99.90
40434;DHT22;26146;51.114;5.654;2023-07-09T23:51:00;20.90;99.90
40434;DHT22;26146;51.114;5.654;2023-07-09T23:55:01;20.80;99.90
40434;DHT22;26146;51.114;5.654;2023-07-09T23:59:03;20.90;99.90
